createdAt,value
2023-05-21T00:10:10.613Z,13.9
2023-05-21T00:30:10.637Z,13.89
2023-05-21T00:50:10.598Z,13.88
2023-05-21T01:10:10.552Z,13.87
2023-05-21T01:30:10.549Z,13.86
2023-05-21T01:50:10.523Z,13.85
2023-05-21T02:10:10.673Z,13.85
2023-05-21T02:30:10.544Z,13.84
2023-05-21T02:50:10.512Z,13.84
2023-05-21T03:10:10.529Z,13.83
2023-05-21T03:30:10.464Z,13.81
2023-05-21T03:50:10.478Z,13.79
2023-05-21T04:10:10.459Z,13.77
2023-05-21T04:30:10.427Z,13.75
2023-05-21T04:50:10.436Z,13.74
2023-05-21T05:10:10.406Z,13.74
2023-05-21T05:30:10.399Z,13.73
2023-05-21T05:50:10.380Z,13.72
2023-05-21T06:10:10.366Z,13.7
2023-05-21T06:30:10.375Z,13.67
2023-05-21T06:50:10.339Z,13.66
2023-05-21T07:10:10.328Z,13.65
2023-05-21T07:30:10.332Z,13.64
2023-05-21T07:50:10.307Z,13.64
2023-05-21T08:10:10.289Z,13.63
2023-05-21T08:30:10.283Z,13.62
2023-05-21T08:50:10.330Z,13.6
2023-05-21T09:10:10.252Z,13.59
2023-05-21T09:30:10.231Z,13.58
2023-05-21T09:50:10.267Z,13.57
2023-05-21T10:10:10.209Z,13.56
2023-05-21T10:30:10.192Z,13.56
2023-05-21T10:50:10.208Z,13.56
2023-05-21T11:10:10.179Z,13.56
2023-05-21T11:30:10.172Z,13.57
2023-05-21T11:50:10.136Z,13.59
2023-05-21T12:10:10.128Z,13.61
2023-05-21T12:30:10.118Z,13.62
2023-05-21T12:50:10.177Z,13.64
2023-05-21T13:10:10.168Z,13.64
2023-05-21T13:30:10.062Z,13.65
2023-05-21T13:50:10.041Z,13.68
2023-05-21T14:10:10.050Z,13.72
2023-05-21T14:30:10.031Z,13.74
2023-05-21T14:50:10.006Z,13.75
2023-05-21T15:10:09.985Z,13.8
2023-05-21T15:30:09.955Z,13.84
2023-05-21T15:50:09.945Z,13.85
2023-05-21T16:10:09.929Z,13.9
2023-05-21T16:50:09.889Z,13.96
2023-05-21T17:10:09.873Z,14.01
2023-05-21T17:30:09.342Z,14.05
2023-05-21T17:50:09.894Z,14.07
2023-05-21T18:10:09.821Z,14.13
2023-05-21T18:30:09.843Z,14.15
2023-05-21T18:50:09.812Z,14.19
2023-05-21T19:10:09.770Z,14.24
2023-05-21T19:30:09.782Z,14.26
2023-05-21T19:50:09.750Z,14.3
2023-05-21T20:10:09.737Z,14.34
2023-05-21T20:30:09.713Z,14.36
2023-05-21T21:10:09.685Z,14.42
2023-05-21T21:30:09.664Z,14.45
2023-05-21T21:50:09.648Z,14.46
2023-05-21T22:10:09.625Z,14.47
2023-05-21T22:30:09.609Z,14.49
2023-05-21T22:50:09.592Z,14.51
2023-05-21T23:10:09.576Z,14.53
2023-05-21T23:30:09.564Z,14.55
2023-05-21T23:50:09.553Z,14.55
